Weather at Long Pond Landing Heliport

Public forecast

Using degrees Fahrenheit for public forecast. Weather courtesy of forecast.io.

Closest aviation weather report (METAR) to Long Pond Landing Heliport

Report is more than 6 hours old.

Closest report is Nashua Airport / Boire Field, 8.0 nm (14.8 km) NW.

2022/11/14 14:56 (retrieved 2 years ago)

KASH 141456Z 30018G24KT 10SM CLR 02/M09 A3023 RMK AO2 PK WND 32026/1433 SLP245 T00221089 51025

Closest aviation forecast (TAF) to Long Pond Landing Heliport

Forecast is more than 12 hours old.

Closest forecast is Manchester-Boston Regional Airport, 14.2 nm (26.3 km) NNW.

2023/02/22 18:39 (retrieved 1 year ago)

TAF KMHT 221737Z 2218/2318 31006KT P6SM SCT040 BKN200 FM230000 00000KT 6SM -SHSN OVC030 FM230300 VRB03KT 2SM -SN OVC025 FM230600 07006KT 3SM -SNPL OVC007 FM231600 04008G16KT 3SM -SHSN OVC020